Ames, Texas
Current Conditions -  °F | °C
As of 2:15 AM on Monday 22 Dec 2014 (Local Time) from K6R3 Reporting Station
Haze Haze  
Wind Chill: 55°   Ceiling: 300
Heat Index: 55°   Visibility: 4mi
Dew Point: 54°   Wind: 3mph
Humidity: 97%   Direction: 160°SSE
Pressure: 29.84"   Gusts: NA
Location:  30.0821°N, 94.7401°W
Report Text: K6R3 220815Z AUTO 16003KT 4SM BR OVC003 13/12 A2984 RMK AO2 T01250121
Loading
Personal Weather Stations






























Interactive Weather Map New forecast layout! Learn more

10-Day Weather Forecast

Advertisements
Track Severe Weather on mobile